createdAt,value
2023-12-10T00:00:13.231Z,3.90
2023-12-10T00:02:43.929Z,2.63
2023-12-10T00:05:14.755Z,3.40
2023-12-10T00:07:48.051Z,2.87
2023-12-10T00:10:18.776Z,3.27
2023-12-10T00:12:49.643Z,3.57
2023-12-10T00:15:20.701Z,4.93
2023-12-10T00:17:51.451Z,3.80
2023-12-10T00:20:23.000Z,3.80
2023-12-10T00:22:56.842Z,2.87
2023-12-10T00:25:27.714Z,3.13
2023-12-10T00:27:58.334Z,3.20
2023-12-10T00:30:30.246Z,3.87
2023-12-10T00:33:00.878Z,3.57
2023-12-10T00:35:31.603Z,3.90
2023-12-10T00:38:04.822Z,3.43
2023-12-10T00:40:35.508Z,4.40
2023-12-10T00:43:06.174Z,3.97
2023-12-10T00:45:36.997Z,3.47
2023-12-10T00:48:08.067Z,4.00
2023-12-10T00:50:38.730Z,4.57
2023-12-10T00:53:12.919Z,3.37
2023-12-10T00:55:44.287Z,4.27
2023-12-10T00:58:15.389Z,4.50
2023-12-10T01:00:46.350Z,3.80
2023-12-10T01:03:17.138Z,4.93
2023-12-10T01:05:48.591Z,5.07
2023-12-10T01:08:21.859Z,4.37
2023-12-10T01:10:52.591Z,4.30
2023-12-10T01:13:25.592Z,4.43
2023-12-10T01:15:56.494Z,3.00
2023-12-10T01:18:27.525Z,4.17
2023-12-10T01:20:58.299Z,4.53
2023-12-10T01:23:31.544Z,4.40
2023-12-10T01:26:02.295Z,4.87
2023-12-10T01:28:32.891Z,4.43
2023-12-10T01:31:03.734Z,4.60
2023-12-10T01:33:34.607Z,3.80
2023-12-10T01:36:05.517Z,4.97
2023-12-10T01:38:38.759Z,5.20
2023-12-10T01:41:10.266Z,5.20
2023-12-10T01:43:42.219Z,4.87
2023-12-10T01:46:13.089Z,4.00
2023-12-10T01:48:45.799Z,4.83
2023-12-10T01:51:16.858Z,5.67
2023-12-10T01:53:50.611Z,5.50
2023-12-10T01:56:21.967Z,4.90
2023-12-10T01:58:52.745Z,5.20
2023-12-10T02:01:24.957Z,6.10
2023-12-10T02:03:56.270Z,6.43
2023-12-10T02:06:27.007Z,5.07
2023-12-10T02:09:00.378Z,5.00
2023-12-10T02:11:31.165Z,4.57
2023-12-10T02:14:02.219Z,5.27
2023-12-10T02:16:33.126Z,5.63
2023-12-10T02:19:04.366Z,5.07
2023-12-10T02:21:38.417Z,4.10
2023-12-10T02:24:16.909Z,5.93
2023-12-10T02:26:50.280Z,4.10
2023-12-10T02:29:21.670Z,5.00
2023-12-10T02:31:52.338Z,4.30
2023-12-10T02:34:23.074Z,5.97
2023-12-10T02:36:53.820Z,4.80
2023-12-10T02:39:24.524Z,5.70
2023-12-10T02:41:57.978Z,4.27
2023-12-10T02:44:28.617Z,8.20
2023-12-10T02:46:59.234Z,4.40
2023-12-10T02:49:29.969Z,4.27
2023-12-10T02:52:00.775Z,5.53
2023-12-10T02:54:31.509Z,4.80
2023-12-10T02:57:04.800Z,4.50
2023-12-10T02:59:35.489Z,3.93
2023-12-10T03:02:06.314Z,4.40
2023-12-10T03:04:36.975Z,3.73
2023-12-10T03:07:08.100Z,4.80
2023-12-10T03:09:39.214Z,5.33
2023-12-10T03:12:13.065Z,3.90
2023-12-10T03:14:43.982Z,3.80
2023-12-10T03:17:14.714Z,3.50
2023-12-10T03:19:45.395Z,2.80
2023-12-10T03:22:16.253Z,3.10
2023-12-10T03:24:47.003Z,2.80
2023-12-10T03:27:20.440Z,4.50
2023-12-10T03:29:51.095Z,3.00
2023-12-10T03:32:21.759Z,4.40
2023-12-10T03:34:52.450Z,2.50
2023-12-10T03:37:23.306Z,3.90
2023-12-10T03:39:54.251Z,3.07
2023-12-10T03:42:28.041Z,3.13
2023-12-10T03:45:00.685Z,3.57
2023-12-10T03:47:28.840Z,2.73
2023-12-10T03:49:59.492Z,2.97
2023-12-10T03:52:30.405Z,2.90
2023-12-10T03:55:01.192Z,3.60
2023-12-10T03:57:34.526Z,2.70
2023-12-10T04:00:06.550Z,2.90
2023-12-10T04:02:42.487Z,3.40
2023-12-10T04:05:13.936Z,5.00
2023-12-10T04:07:44.926Z,5.10
2023-12-10T04:10:15.951Z,3.37
2023-12-10T04:12:49.243Z,4.57
2023-12-10T04:15:20.200Z,4.23
2023-12-10T04:17:50.930Z,6.13
2023-12-10T04:20:21.619Z,7.27
2023-12-10T04:22:52.265Z,6.73
2023-12-10T04:25:22.984Z,7.00
2023-12-10T04:27:56.255Z,6.00
2023-12-10T04:30:28.174Z,5.97
2023-12-10T04:32:58.876Z,4.43
2023-12-10T04:35:29.662Z,2.93
2023-12-10T04:38:00.550Z,4.27
2023-12-10T04:40:31.178Z,3.97
2023-12-10T04:43:04.698Z,3.80
2023-12-10T04:45:35.504Z,4.60
2023-12-10T04:48:06.234Z,4.20
2023-12-10T04:50:37.004Z,4.00
2023-12-10T04:53:07.751Z,3.50
2023-12-10T04:55:38.391Z,2.97
2023-12-10T04:58:11.744Z,3.43
2023-12-10T05:00:42.692Z,4.47
2023-12-10T05:03:13.596Z,4.67
2023-12-10T05:05:44.299Z,3.87
2023-12-10T05:08:15.011Z,3.83
2023-12-10T05:10:45.741Z,3.03
2023-12-10T05:13:19.030Z,3.40
2023-12-10T05:15:49.699Z,3.70
2023-12-10T05:18:20.527Z,3.40
2023-12-10T05:20:51.269Z,3.10
2023-12-10T05:23:23.586Z,3.30
2023-12-10T05:25:54.368Z,3.27
2023-12-10T05:28:27.619Z,3.17
2023-12-10T05:30:58.342Z,3.80
2023-12-10T05:33:29.085Z,3.90
2023-12-10T05:35:59.830Z,2.30
2023-12-10T05:38:30.490Z,2.33
2023-12-10T05:41:01.159Z,5.00
2023-12-10T05:43:34.426Z,3.30
2023-12-10T05:46:05.773Z,3.17
2023-12-10T05:48:37.280Z,2.93
2023-12-10T05:51:08.561Z,4.30
2023-12-10T05:53:39.274Z,3.80
2023-12-10T05:56:11.308Z,2.87
2023-12-10T05:58:44.495Z,4.40
2023-12-10T06:01:15.280Z,3.60
2023-12-10T06:03:46.043Z,4.23
2023-12-10T06:06:16.932Z,3.00
2023-12-10T06:08:47.622Z,3.50
2023-12-10T06:11:18.248Z,4.10
2023-12-10T06:13:51.502Z,4.27
2023-12-10T06:16:22.157Z,3.50
2023-12-10T06:18:53.078Z,3.90
2023-12-10T06:21:23.823Z,2.93
2023-12-10T06:23:54.482Z,2.90
2023-12-10T06:26:25.121Z,3.83
2023-12-10T06:28:58.488Z,3.93
2023-12-10T06:31:29.193Z,2.90
2023-12-10T06:34:00.130Z,3.37
2023-12-10T06:36:30.957Z,3.87
2023-12-10T06:39:01.708Z,2.40
2023-12-10T06:41:32.329Z,2.90
2023-12-10T06:44:05.604Z,2.20
2023-12-10T06:46:36.269Z,3.53
2023-12-10T06:49:07.028Z,5.07
2023-12-10T06:51:37.786Z,3.03
2023-12-10T06:54:08.780Z,2.73
2023-12-10T06:56:41.305Z,3.20
2023-12-10T06:59:14.581Z,2.47
2023-12-10T07:01:45.494Z,3.60
2023-12-10T07:04:16.280Z,2.83
2023-12-10T07:06:46.897Z,3.30
2023-12-10T07:09:17.495Z,2.93
2023-12-10T07:11:48.264Z,3.93
2023-12-10T07:14:21.505Z,2.90
2023-12-10T07:16:52.235Z,3.43
2023-12-10T07:19:24.306Z,5.40
2023-12-10T07:21:57.125Z,4.03
2023-12-10T07:24:28.375Z,3.40
2023-12-10T07:26:59.021Z,3.00
2023-12-10T07:29:32.326Z,3.70
2023-12-10T07:32:03.304Z,4.60
2023-12-10T07:34:34.032Z,2.90
2023-12-10T07:37:05.295Z,2.60
2023-12-10T07:39:35.970Z,3.73
2023-12-10T07:42:06.747Z,3.17
2023-12-10T07:44:40.097Z,3.60
2023-12-10T07:47:13.016Z,5.23
2023-12-10T07:49:44.313Z,4.10
2023-12-10T07:52:15.003Z,3.97
2023-12-10T07:54:45.696Z,3.87
2023-12-10T07:57:16.458Z,3.10
2023-12-10T07:59:49.706Z,4.30
2023-12-10T08:02:20.360Z,3.37
2023-12-10T08:04:51.041Z,5.77
2023-12-10T08:07:21.767Z,3.80
2023-12-10T08:09:52.455Z,2.40
2023-12-10T08:12:23.161Z,3.80
2023-12-10T08:14:56.547Z,5.07
2023-12-10T08:17:27.264Z,4.30
2023-12-10T08:19:58.085Z,5.30
2023-12-10T08:22:29.626Z,2.33
2023-12-10T08:25:00.521Z,4.10
2023-12-10T08:27:31.290Z,3.63
2023-12-10T08:30:05.441Z,4.20
2023-12-10T08:32:36.457Z,4.23
2023-12-10T08:35:07.988Z,3.90
2023-12-10T08:37:39.791Z,3.00
2023-12-10T08:40:11.517Z,2.97
2023-12-10T08:42:42.247Z,3.93
2023-12-10T08:45:15.961Z,3.13
2023-12-10T08:47:46.816Z,5.77
2023-12-10T08:50:17.977Z,4.50
2023-12-10T08:52:48.737Z,4.67
2023-12-10T08:55:19.414Z,3.60
2023-12-10T08:57:50.101Z,5.00
2023-12-10T09:00:23.881Z,4.10
2023-12-10T09:02:54.763Z,2.50
2023-12-10T09:05:25.627Z,3.07
2023-12-10T09:07:56.614Z,2.93
2023-12-10T09:10:27.360Z,2.70
2023-12-10T09:12:58.144Z,3.23
2023-12-10T09:15:31.487Z,3.73
2023-12-10T09:18:02.319Z,3.30
2023-12-10T09:20:33.052Z,2.87
2023-12-10T09:23:03.727Z,3.07
2023-12-10T09:25:34.836Z,3.17
2023-12-10T09:28:07.730Z,3.60
2023-12-10T09:30:41.868Z,2.97
2023-12-10T09:33:12.812Z,3.10
2023-12-10T09:35:43.602Z,3.40
2023-12-10T09:38:14.239Z,2.30
2023-12-10T09:40:44.871Z,3.80
2023-12-10T09:43:15.574Z,3.33
2023-12-10T09:45:49.100Z,3.73
2023-12-10T09:48:21.247Z,3.87
2023-12-10T09:50:52.003Z,4.80
2023-12-10T09:53:23.352Z,2.50
2023-12-10T09:55:54.034Z,2.77
2023-12-10T09:58:24.706Z,2.30
2023-12-10T10:00:58.372Z,2.67
2023-12-10T10:03:29.811Z,2.80
2023-12-10T10:06:00.472Z,2.80
2023-12-10T10:08:31.526Z,2.43
2023-12-10T10:11:02.649Z,4.00
2023-12-10T10:13:30.814Z,5.50
2023-12-10T10:16:13.934Z,2.67
2023-12-10T10:18:45.566Z,3.97
2023-12-10T10:21:16.278Z,3.30
2023-12-10T10:23:47.399Z,2.63
2023-12-10T10:26:18.135Z,3.40
2023-12-10T10:28:50.175Z,3.13
2023-12-10T10:31:23.870Z,4.00
2023-12-10T10:33:54.923Z,3.20
2023-12-10T10:36:26.000Z,3.00
2023-12-10T10:38:58.049Z,2.53
2023-12-10T10:41:29.167Z,3.80
2023-12-10T10:44:00.488Z,3.63
2023-12-10T10:46:34.278Z,2.60
2023-12-10T10:49:05.138Z,2.33
2023-12-10T10:51:37.840Z,2.70
2023-12-10T10:54:09.277Z,2.30
2023-12-10T10:56:40.850Z,2.53
2023-12-10T10:59:32.615Z,2.73
2023-12-10T11:02:10.257Z,3.50
2023-12-10T11:04:43.695Z,2.60
2023-12-10T11:07:14.388Z,3.47
2023-12-10T11:09:59.792Z,2.80
2023-12-10T11:12:50.494Z,3.00
2023-12-10T11:15:28.459Z,3.00
2023-12-10T11:18:07.979Z,3.20
2023-12-10T11:20:42.514Z,3.40
2023-12-10T11:23:14.950Z,3.80
2023-12-10T11:25:46.764Z,3.00
2023-12-10T11:28:19.526Z,3.07
2023-12-10T11:30:51.280Z,4.10
2023-12-10T11:33:24.679Z,3.27
2023-12-10T11:36:32.294Z,3.17
2023-12-10T11:38:50.615Z,2.80
2023-12-10T11:41:22.790Z,3.97
2023-12-10T11:43:53.441Z,3.93
2023-12-10T11:46:32.034Z,4.93
2023-12-10T11:49:11.716Z,3.67
2023-12-10T11:51:42.858Z,3.07
2023-12-10T11:54:13.840Z,3.63
2023-12-10T11:56:44.699Z,2.60
2023-12-10T11:59:15.430Z,2.20
2023-12-10T12:01:49.601Z,2.60
2023-12-10T12:04:22.968Z,3.60
2023-12-10T12:06:53.794Z,3.63
2023-12-10T12:09:26.590Z,2.90
2023-12-10T12:11:57.593Z,3.57
2023-12-10T12:14:29.386Z,3.43
2023-12-10T12:17:00.233Z,2.87
2023-12-10T12:19:33.772Z,3.57
2023-12-10T12:22:04.454Z,2.70
2023-12-10T12:24:35.263Z,2.37
2023-12-10T12:27:05.980Z,3.70
2023-12-10T12:29:37.105Z,2.97
2023-12-10T12:32:19.897Z,2.80
2023-12-10T12:35:02.204Z,4.20
2023-12-10T12:37:32.995Z,4.40
2023-12-10T12:40:05.133Z,4.33
2023-12-10T12:42:36.222Z,4.17
2023-12-10T12:45:07.285Z,2.83
2023-12-10T12:47:38.819Z,3.23
2023-12-10T12:50:13.172Z,2.90
2023-12-10T12:52:43.904Z,3.00
2023-12-10T12:55:14.731Z,2.57
2023-12-10T12:57:46.173Z,2.90
2023-12-10T13:00:18.773Z,2.83
2023-12-10T13:02:49.748Z,2.80
2023-12-10T13:05:23.081Z,2.40
2023-12-10T13:07:53.842Z,2.80
2023-12-10T13:10:24.511Z,4.07
2023-12-10T13:12:55.147Z,3.83
2023-12-10T13:15:25.926Z,2.83
2023-12-10T13:17:56.743Z,4.37
2023-12-10T13:20:30.024Z,4.60
2023-12-10T13:23:00.693Z,7.30
2023-12-10T13:25:31.367Z,4.80
2023-12-10T13:28:02.047Z,3.07
2023-12-10T13:30:32.661Z,3.67
2023-12-10T13:33:04.160Z,4.27
2023-12-10T13:35:37.575Z,2.77
2023-12-10T13:38:08.330Z,4.00
2023-12-10T13:40:39.019Z,2.37
2023-12-10T13:43:11.037Z,3.23
2023-12-10T13:45:42.445Z,2.90
2023-12-10T13:48:13.269Z,3.60
2023-12-10T13:50:46.608Z,2.93
2023-12-10T13:53:17.404Z,2.90
2023-12-10T13:55:48.123Z,4.53
2023-12-10T13:58:18.761Z,3.83
2023-12-10T14:00:49.473Z,3.20
2023-12-10T14:03:20.283Z,4.17
2023-12-10T14:05:53.555Z,3.83
2023-12-10T14:08:24.268Z,4.27
2023-12-10T14:10:54.892Z,4.07
2023-12-10T14:13:25.525Z,2.97
2023-12-10T14:15:56.441Z,3.10
2023-12-10T14:18:27.520Z,3.77
2023-12-10T14:21:00.837Z,3.47
2023-12-10T14:23:31.444Z,4.23
2023-12-10T14:26:02.125Z,4.23
2023-12-10T14:28:33.589Z,3.40
2023-12-10T14:31:04.485Z,3.90
2023-12-10T14:33:35.373Z,3.30
2023-12-10T14:36:09.317Z,3.17
2023-12-10T14:38:40.015Z,3.60
2023-12-10T14:41:10.809Z,4.63
2023-12-10T14:43:41.635Z,3.30
2023-12-10T14:46:12.442Z,3.67
2023-12-10T14:48:43.249Z,3.67
2023-12-10T14:51:16.620Z,5.10
2023-12-10T14:53:47.370Z,3.83
2023-12-10T14:56:18.081Z,5.03
2023-12-10T14:58:48.724Z,3.83
2023-12-10T15:01:19.527Z,3.80
2023-12-10T15:03:50.431Z,4.90
2023-12-10T15:06:24.329Z,4.47
2023-12-10T15:08:56.152Z,4.70
2023-12-10T15:11:26.740Z,4.90
2023-12-10T15:13:57.944Z,6.40
2023-12-10T15:16:28.642Z,5.43
2023-12-10T15:18:59.383Z,8.90
2023-12-10T15:21:32.689Z,7.63
2023-12-10T15:24:03.368Z,6.27
2023-12-10T15:26:34.013Z,5.53
2023-12-10T15:29:04.806Z,4.83
2023-12-10T15:31:35.502Z,3.63
2023-12-10T15:34:06.265Z,5.00
2023-12-10T15:36:42.252Z,4.60
2023-12-10T15:39:12.982Z,4.20
2023-12-10T15:41:43.934Z,3.43
2023-12-10T15:44:14.629Z,4.03
2023-12-10T15:46:45.293Z,4.57
2023-12-10T15:49:16.206Z,4.67
2023-12-10T15:51:50.168Z,4.40
2023-12-10T15:54:20.932Z,4.87
2023-12-10T15:56:51.616Z,4.77
2023-12-10T15:59:22.229Z,4.97
2023-12-10T16:01:54.274Z,4.57
2023-12-10T16:04:25.094Z,4.20
2023-12-10T16:06:59.322Z,3.73
2023-12-10T16:09:30.364Z,3.50
2023-12-10T16:12:01.044Z,5.10
2023-12-10T16:14:31.959Z,4.13
2023-12-10T16:17:02.700Z,6.97
2023-12-10T16:19:33.501Z,6.00
2023-12-10T16:22:07.358Z,4.90
2023-12-10T16:24:39.022Z,4.60
2023-12-10T16:27:09.702Z,6.97
2023-12-10T16:29:40.528Z,5.10
2023-12-10T16:32:11.168Z,4.23
2023-12-10T16:34:41.842Z,5.00
2023-12-10T16:37:18.894Z,4.43
2023-12-10T16:39:50.613Z,4.90
2023-12-10T16:42:23.369Z,3.80
2023-12-10T16:44:54.791Z,5.17
2023-12-10T16:47:25.664Z,4.23
2023-12-10T16:49:56.452Z,3.87
2023-12-10T16:52:30.588Z,4.73
2023-12-10T16:55:01.404Z,5.63
2023-12-10T16:57:32.364Z,4.30
2023-12-10T17:00:05.560Z,6.40
2023-12-10T17:02:37.141Z,4.70
2023-12-10T17:05:08.467Z,5.40
2023-12-10T17:07:41.818Z,3.40
2023-12-10T17:10:13.400Z,3.53
2023-12-10T17:12:44.108Z,3.50
2023-12-10T17:15:15.092Z,5.90
2023-12-10T17:17:45.932Z,5.50
2023-12-10T17:20:16.998Z,4.03
2023-12-10T17:22:50.340Z,3.70
2023-12-10T17:25:21.130Z,4.63
2023-12-10T17:27:51.963Z,3.50
2023-12-10T17:30:22.734Z,4.10
2023-12-10T17:32:53.491Z,3.70
2023-12-10T17:35:24.352Z,3.97
2023-12-10T17:37:57.819Z,4.67
2023-12-10T17:40:28.471Z,5.47
2023-12-10T17:42:59.155Z,4.60
2023-12-10T17:45:29.853Z,7.50
2023-12-10T17:48:00.779Z,6.07
2023-12-10T17:50:31.785Z,5.23
2023-12-10T17:53:05.767Z,5.40
2023-12-10T17:55:37.112Z,3.77
2023-12-10T17:58:07.786Z,5.50
2023-12-10T18:00:38.627Z,6.00
2023-12-10T18:03:10.200Z,5.30
2023-12-10T18:05:41.178Z,5.30
2023-12-10T18:08:15.498Z,4.57
2023-12-10T18:10:46.252Z,3.50
2023-12-10T18:13:16.943Z,4.20
2023-12-10T18:15:47.733Z,4.70
2023-12-10T18:18:18.528Z,5.97
2023-12-10T18:20:49.252Z,4.50
2023-12-10T18:23:22.476Z,5.90
2023-12-10T18:25:53.322Z,5.17
2023-12-10T18:28:24.038Z,6.40
2023-12-10T18:30:56.489Z,6.33
2023-12-10T18:33:28.559Z,6.23
2023-12-10T18:35:59.459Z,5.17
2023-12-10T18:38:32.809Z,4.63
2023-12-10T18:41:03.540Z,4.10
2023-12-10T18:43:34.359Z,4.30
2023-12-10T18:46:05.097Z,6.33
2023-12-10T18:48:35.865Z,6.00
2023-12-10T18:51:06.960Z,4.90
2023-12-10T18:53:40.355Z,5.60
2023-12-10T18:56:11.268Z,6.30
2023-12-10T18:58:41.942Z,5.77
2023-12-10T19:01:12.681Z,5.80
2023-12-10T19:03:45.392Z,5.07
2023-12-10T19:06:16.061Z,7.20
2023-12-10T19:08:49.322Z,7.50
2023-12-10T19:11:20.750Z,6.80
2023-12-10T19:13:52.007Z,6.60
2023-12-10T19:16:22.735Z,8.20
2023-12-10T19:18:53.785Z,11.10
2023-12-10T19:21:24.624Z,7.50
2023-12-10T19:23:58.107Z,10.00
2023-12-10T19:26:29.409Z,10.57
2023-12-10T19:29:00.207Z,9.20
2023-12-10T19:31:31.160Z,10.17
2023-12-10T19:34:01.861Z,9.17
2023-12-10T19:36:32.550Z,9.90
2023-12-10T19:39:05.884Z,10.07
2023-12-10T19:41:36.537Z,11.43
2023-12-10T19:44:07.140Z,10.47
2023-12-10T19:46:37.775Z,10.30
2023-12-10T19:49:09.331Z,8.43
2023-12-10T19:51:40.148Z,7.70
2023-12-10T19:54:13.508Z,6.90
2023-12-10T19:56:44.217Z,8.20
2023-12-10T19:59:14.881Z,7.90
2023-12-10T20:01:45.709Z,6.60
2023-12-10T20:04:16.628Z,5.20
2023-12-10T20:06:47.443Z,4.47
2023-12-10T20:09:20.832Z,4.13
2023-12-10T20:11:51.502Z,3.80
2023-12-10T20:14:22.670Z,3.20
2023-12-10T20:16:54.645Z,3.10
2023-12-10T20:19:27.269Z,2.63
2023-12-10T20:21:58.266Z,2.80
2023-12-10T20:24:36.581Z,2.40
2023-12-10T20:27:10.415Z,2.70
2023-12-10T20:29:41.044Z,2.07
2023-12-10T20:32:12.005Z,1.73
2023-12-10T20:34:42.725Z,1.57
2023-12-10T20:37:16.379Z,1.83
2023-12-10T20:39:49.680Z,1.63
2023-12-10T20:42:20.474Z,1.27
2023-12-10T20:44:54.476Z,1.27
2023-12-10T20:47:25.290Z,1.77
2023-12-10T20:49:55.963Z,1.50
2023-12-10T20:52:26.680Z,2.97
2023-12-10T20:55:00.029Z,1.77
2023-12-10T20:57:30.905Z,1.40
2023-12-10T21:00:01.748Z,2.53
2023-12-10T21:02:32.414Z,2.90
2023-12-10T21:05:03.194Z,2.47
2023-12-10T21:07:34.365Z,2.07
2023-12-10T21:10:08.794Z,1.50
2023-12-10T21:12:39.562Z,2.30
2023-12-10T21:15:11.149Z,2.20
2023-12-10T21:17:41.950Z,1.33
2023-12-10T21:20:13.306Z,2.10
2023-12-10T21:22:43.930Z,1.53
2023-12-10T21:25:18.002Z,1.80
2023-12-10T21:27:48.702Z,1.63
2023-12-10T21:30:19.436Z,2.33
2023-12-10T21:32:50.102Z,1.80
2023-12-10T21:35:20.759Z,2.03
2023-12-10T21:37:51.418Z,1.70
2023-12-10T21:40:24.676Z,1.90
2023-12-10T21:42:55.585Z,1.60
2023-12-10T21:45:26.238Z,1.83
2023-12-10T21:47:56.924Z,1.30
2023-12-10T21:50:27.722Z,1.90
2023-12-10T21:52:58.440Z,1.87
2023-12-10T21:55:31.763Z,1.47
2023-12-10T21:58:04.794Z,2.87
2023-12-10T22:00:36.669Z,1.37
2023-12-10T22:03:07.581Z,1.67
2023-12-10T22:05:38.264Z,1.17
2023-12-10T22:08:09.494Z,1.37
2023-12-10T22:10:43.348Z,2.63
2023-12-10T22:13:14.126Z,1.40
2023-12-10T22:15:44.968Z,1.20
2023-12-10T22:18:16.025Z,1.77
2023-12-10T22:20:46.957Z,1.40
2023-12-10T22:23:17.656Z,1.20
2023-12-10T22:25:50.905Z,1.60
2023-12-10T22:28:23.370Z,1.30
2023-12-10T22:30:54.072Z,0.90
2023-12-10T22:33:24.743Z,0.90
2023-12-10T22:35:55.474Z,1.10
2023-12-10T22:38:28.213Z,1.00
2023-12-10T22:41:01.582Z,1.10
2023-12-10T22:43:32.366Z,1.20
2023-12-10T22:46:04.164Z,0.90
2023-12-10T22:48:35.035Z,1.40
2023-12-10T22:51:05.860Z,1.30
2023-12-10T22:53:36.576Z,1.23
2023-12-10T22:56:10.639Z,1.30
2023-12-10T22:58:41.270Z,1.17
2023-12-10T23:01:11.970Z,1.10
2023-12-10T23:03:42.678Z,1.03
2023-12-10T23:06:13.599Z,2.10
2023-12-10T23:08:44.269Z,1.20
2023-12-10T23:11:17.513Z,1.20
2023-12-10T23:13:48.149Z,0.90
2023-12-10T23:16:18.735Z,1.00
2023-12-10T23:18:49.608Z,1.57
2023-12-10T23:21:20.365Z,1.77
2023-12-10T23:23:51.023Z,2.07
2023-12-10T23:26:24.363Z,1.63
2023-12-10T23:28:55.057Z,1.50
2023-12-10T23:31:25.744Z,1.10
2023-12-10T23:33:56.661Z,1.53
2023-12-10T23:36:27.426Z,1.20
2023-12-10T23:38:58.268Z,1.00
2023-12-10T23:41:31.729Z,1.27
2023-12-10T23:44:03.314Z,1.10
2023-12-10T23:46:34.031Z,0.90
2023-12-10T23:49:05.048Z,1.10
2023-12-10T23:51:35.888Z,0.90
2023-12-10T23:54:06.778Z,1.23
2023-12-10T23:56:40.013Z,0.97
2023-12-10T23:59:10.694Z,1.10
